Terminal Aerodrome Forecast
Issued by NWS

Home | Current Version | Previous Version | Text Only | Print | Product List | Glossary On
Versions: 1 2 3 4 5 6 7 8 9 10 11 12 13 14 15 16
000
FTUS46 KMFR 161700 RRA
TAFOTH
TAF
KOTH 161746Z 1618/1718 23005KT P6SM SCT050 BKN200
     FM162100 28007KT P6SM BKN050 BKN200
     FM170700 28005KT P6SM OVC025
     FM171000 27004KT 6SM -DZ SCT007 OVC012
     FM171500 19007KT P6SM SCT010 BKN020 OVC100=

USA.gov is the U.S. government's official web portal to all federal, state and local government web resources and services.